FIN4IR EGPH-EKVG
Flight info
| Callsign | FIN4IR |
|---|---|
| Flight time | 1h 16m |
| Altitude | 35000 |
| Route | GRICE3C GRICE P600 GLESK DCT SMOKI DCT NALAN/M065F240 DCT SUDUR DCT |
| Aircraft | A321/M-SDE3FGHIRWY/LB1 |
Departure
| Time | 2026-05-07 11:52 |
|---|---|
| Airport | Edinburgh Airport (EGPH) |
Arrival
| Time | 2026-05-07 13:08 |
|---|---|
| Airport | Vágar Airport (EKVG) |
| Time | Latitude | Longitude | Altitude | Speed | Heading |
|---|---|---|---|---|---|
| 2026-05-07 11:38 | 55.94863 | -3.36623 | 104 ft | 0 kts | 149° |
| 2026-05-07 11:45 | 55.94862 | -3.36623 | 104 ft | 0 kts | 149° |
| 2026-05-07 11:45 | 55.94872 | -3.36633 | 104 ft | 2 kts | 149° |
| 2026-05-07 11:45 | 55.94884 | -3.36646 | 104 ft | 1 kts | 149° |
| 2026-05-07 11:46 | 55.94893 | -3.36655 | 104 ft | 2 kts | 138° |
| 2026-05-07 11:46 | 55.94902 | -3.36678 | 104 ft | 2 kts | 108° |
| 2026-05-07 11:46 | 55.94904 | -3.36704 | 103 ft | 2 kts | 82° |
| 2026-05-07 11:46 | 55.94900 | -3.36724 | 103 ft | 0 kts | 62° |
| 2026-05-07 11:47 | 55.94897 | -3.36734 | 103 ft | 0 kts | 58° |
| 2026-05-07 11:48 | 55.94905 | -3.36709 | 103 ft | 7 kts | 59° |
| 2026-05-07 11:48 | 55.94956 | -3.36560 | 104 ft | 20 kts | 59° |
| 2026-05-07 11:48 | 55.95036 | -3.36388 | 104 ft | 16 kts | 0° |
| 2026-05-07 11:49 | 55.95124 | -3.36306 | 104 ft | 19 kts | 59° |
| 2026-05-07 11:49 | 55.95204 | -3.36070 | 104 ft | 25 kts | 59° |
| 2026-05-07 11:49 | 55.95302 | -3.35783 | 104 ft | 27 kts | 59° |
| 2026-05-07 11:49 | 55.95400 | -3.35494 | 103 ft | 26 kts | 59° |
| 2026-05-07 11:50 | 55.95486 | -3.35433 | 102 ft | 0 kts | 330° |
| 2026-05-07 11:51 | 55.95511 | -3.35460 | 101 ft | 22 kts | 330° |
| 2026-05-07 11:51 | 55.95520 | -3.35719 | 101 ft | 26 kts | 239° |
| 2026-05-07 11:51 | 55.95374 | -3.36145 | 103 ft | 71 kts | 239° |
| 2026-05-07 11:51 | 55.94994 | -3.37260 | 101 ft | 139 kts | 239° |
| 2026-05-07 11:52 | 55.94413 | -3.38909 | 395 ft | 165 kts | 237° |
| 2026-05-07 11:52 | 55.93793 | -3.40643 | 1050 ft | 170 kts | 238° |
| 2026-05-07 11:52 | 55.93187 | -3.42377 | 1925 ft | 163 kts | 238° |
| 2026-05-07 11:52 | 55.92580 | -3.44130 | 2477 ft | 176 kts | 239° |
| 2026-05-07 11:53 | 55.92203 | -3.46237 | 2893 ft | 189 kts | 274° |
| 2026-05-07 11:53 | 55.92780 | -3.48352 | 3197 ft | 201 kts | 321° |
| 2026-05-07 11:53 | 55.94109 | -3.49291 | 3515 ft | 216 kts | 352° |
| 2026-05-07 11:53 | 55.95664 | -3.49580 | 3788 ft | 236 kts | 355° |
| 2026-05-07 11:54 | 55.97364 | -3.49942 | 4132 ft | 255 kts | 352° |
| 2026-05-07 11:54 | 55.99136 | -3.50489 | 4644 ft | 267 kts | 349° |
| 2026-05-07 11:54 | 56.00952 | -3.51164 | 5385 ft | 270 kts | 348° |
| 2026-05-07 11:54 | 56.02777 | -3.51911 | 6141 ft | 272 kts | 346° |
| 2026-05-07 11:55 | 56.04611 | -3.52869 | 6892 ft | 275 kts | 344° |
| 2026-05-07 11:55 | 56.06424 | -3.53896 | 7629 ft | 278 kts | 340° |
| 2026-05-07 11:55 | 56.08182 | -3.55319 | 8367 ft | 281 kts | 331° |
| 2026-05-07 11:55 | 56.09816 | -3.57247 | 9108 ft | 284 kts | 322° |
| 2026-05-07 11:56 | 56.11271 | -3.59619 | 9847 ft | 287 kts | 316° |
| 2026-05-07 11:56 | 56.12899 | -3.61735 | 10463 ft | 294 kts | 339° |
| 2026-05-07 11:56 | 56.14945 | -3.62214 | 10765 ft | 311 kts | 9° |
| 2026-05-07 11:56 | 56.17030 | -3.60946 | 11123 ft | 326 kts | 26° |
| 2026-05-07 11:57 | 56.19063 | -3.59105 | 11709 ft | 332 kts | 27° |
| 2026-05-07 11:57 | 56.21160 | -3.57292 | 12387 ft | 335 kts | 25° |
| 2026-05-07 11:57 | 56.23275 | -3.55634 | 13045 ft | 338 kts | 23° |
| 2026-05-07 11:57 | 56.25452 | -3.54053 | 13688 ft | 342 kts | 22° |
| 2026-05-07 11:58 | 56.27677 | -3.52509 | 14320 ft | 345 kts | 21° |
| 2026-05-07 11:58 | 56.29922 | -3.50981 | 14936 ft | 348 kts | 21° |
| 2026-05-07 11:58 | 56.32181 | -3.49454 | 15537 ft | 351 kts | 21° |
| 2026-05-07 11:58 | 56.34484 | -3.47880 | 16131 ft | 354 kts | 22° |
| 2026-05-07 11:59 | 56.36721 | -3.46020 | 16707 ft | 357 kts | 28° |
| 2026-05-07 11:59 | 56.38852 | -3.43740 | 17269 ft | 360 kts | 34° |
| 2026-05-07 11:59 | 56.40906 | -3.41163 | 17824 ft | 363 kts | 36° |
| 2026-05-07 11:59 | 56.42956 | -3.38494 | 18364 ft | 366 kts | 36° |
| 2026-05-07 12:00 | 56.45033 | -3.35797 | 18893 ft | 369 kts | 35° |
| 2026-05-07 12:00 | 56.47142 | -3.33164 | 19406 ft | 372 kts | 34° |
| 2026-05-07 12:00 | 56.49277 | -3.30533 | 19911 ft | 375 kts | 34° |
| 2026-05-07 12:00 | 56.51432 | -3.27878 | 20410 ft | 378 kts | 34° |
| 2026-05-07 12:01 | 56.53599 | -3.25201 | 20900 ft | 381 kts | 34° |
| 2026-05-07 12:01 | 56.55782 | -3.22498 | 21382 ft | 383 kts | 34° |
| 2026-05-07 12:01 | 56.57973 | -3.19777 | 21853 ft | 386 kts | 34° |
| 2026-05-07 12:01 | 56.60200 | -3.17009 | 22320 ft | 389 kts | 34° |
| 2026-05-07 12:02 | 56.62423 | -3.14241 | 22774 ft | 392 kts | 34° |
| 2026-05-07 12:02 | 56.64672 | -3.11434 | 23222 ft | 394 kts | 34° |
| 2026-05-07 12:02 | 56.67013 | -3.08507 | 23676 ft | 397 kts | 34° |
| 2026-05-07 12:02 | 56.69330 | -3.05604 | 24113 ft | 400 kts | 34° |
| 2026-05-07 12:03 | 56.71644 | -3.02704 | 24538 ft | 403 kts | 34° |
| 2026-05-07 12:03 | 56.73959 | -2.99800 | 24951 ft | 405 kts | 34° |
| 2026-05-07 12:03 | 56.76268 | -2.96899 | 25354 ft | 408 kts | 34° |
| 2026-05-07 12:03 | 56.78599 | -2.93964 | 25746 ft | 410 kts | 34° |
| 2026-05-07 12:04 | 56.80974 | -2.90964 | 26135 ft | 413 kts | 34° |
| 2026-05-07 12:04 | 56.83332 | -2.87981 | 26512 ft | 415 kts | 34° |
| 2026-05-07 12:04 | 56.85692 | -2.84990 | 26878 ft | 417 kts | 34° |
| 2026-05-07 12:04 | 56.88139 | -2.82121 | 27229 ft | 420 kts | 28° |
| 2026-05-07 12:05 | 56.90810 | -2.79972 | 27573 ft | 422 kts | 18° |
| 2026-05-07 12:05 | 56.93644 | -2.78679 | 27911 ft | 424 kts | 9° |
| 2026-05-07 12:05 | 56.96547 | -2.77949 | 28254 ft | 426 kts | 6° |
| 2026-05-07 12:05 | 56.99507 | -2.77327 | 28580 ft | 429 kts | 6° |
| 2026-05-07 12:06 | 57.02485 | -2.76714 | 28899 ft | 431 kts | 6° |
| 2026-05-07 12:06 | 57.05441 | -2.76094 | 29212 ft | 433 kts | 6° |
| 2026-05-07 12:06 | 57.08445 | -2.75450 | 29520 ft | 435 kts | 6° |
| 2026-05-07 12:06 | 57.11445 | -2.74797 | 29817 ft | 437 kts | 6° |
| 2026-05-07 12:07 | 57.14475 | -2.74133 | 30109 ft | 439 kts | 6° |
| 2026-05-07 12:07 | 57.17496 | -2.73468 | 30406 ft | 441 kts | 6° |
| 2026-05-07 12:07 | 57.20530 | -2.72795 | 30785 ft | 440 kts | 6° |
| 2026-05-07 12:07 | 57.23550 | -2.72123 | 31265 ft | 436 kts | 6° |
| 2026-05-07 12:08 | 57.26548 | -2.71454 | 31767 ft | 432 kts | 6° |
| 2026-05-07 12:08 | 57.29506 | -2.70791 | 32267 ft | 429 kts | 6° |
| 2026-05-07 12:08 | 57.32435 | -2.70134 | 32758 ft | 424 kts | 6° |
| 2026-05-07 12:08 | 57.35357 | -2.69478 | 32980 ft | 428 kts | 6° |
| 2026-05-07 12:09 | 57.38316 | -2.68812 | 33108 ft | 432 kts | 6° |
| 2026-05-07 12:09 | 57.41340 | -2.68130 | 33317 ft | 435 kts | 6° |
| 2026-05-07 12:09 | 57.44321 | -2.67457 | 33586 ft | 436 kts | 6° |
| 2026-05-07 12:09 | 57.47319 | -2.66779 | 33857 ft | 436 kts | 6° |
| 2026-05-07 12:10 | 57.50311 | -2.66102 | 34109 ft | 437 kts | 6° |
| 2026-05-07 12:10 | 57.53345 | -2.65414 | 34350 ft | 438 kts | 6° |
| 2026-05-07 12:10 | 57.56347 | -2.64731 | 34582 ft | 439 kts | 6° |
| 2026-05-07 12:10 | 57.59361 | -2.64046 | 34704 ft | 443 kts | 6° |
| 2026-05-07 12:11 | 57.62447 | -2.63342 | 34806 ft | 447 kts | 6° |
| 2026-05-07 12:11 | 57.68653 | -2.61941 | 34996 ft | 454 kts | 5° |
| 2026-05-07 12:12 | 57.74966 | -2.61876 | 35014 ft | 463 kts | 354° |
| 2026-05-07 12:12 | 57.81314 | -2.64212 | 35017 ft | 466 kts | 342° |
| 2026-05-07 12:13 | 57.87288 | -2.68833 | 35019 ft | 466 kts | 333° |
| 2026-05-07 12:13 | 57.93024 | -2.74328 | 35018 ft | 466 kts | 332° |
| 2026-05-07 12:14 | 57.98785 | -2.79908 | 35019 ft | 466 kts | 333° |
| 2026-05-07 12:14 | 58.04436 | -2.85369 | 35019 ft | 466 kts | 333° |
| 2026-05-07 12:15 | 58.10183 | -2.90924 | 35019 ft | 466 kts | 333° |
| 2026-05-07 12:15 | 58.15937 | -2.96475 | 35018 ft | 466 kts | 333° |
| 2026-05-07 12:16 | 58.21732 | -3.02089 | 35018 ft | 466 kts | 333° |
| 2026-05-07 12:16 | 58.27474 | -3.07683 | 35018 ft | 466 kts | 333° |
| 2026-05-07 12:17 | 58.33201 | -3.13290 | 35018 ft | 466 kts | 333° |
| 2026-05-07 12:17 | 58.38981 | -3.18970 | 35018 ft | 466 kts | 333° |
| 2026-05-07 12:18 | 58.44700 | -3.24611 | 35018 ft | 466 kts | 333° |
| 2026-05-07 12:18 | 58.50454 | -3.30309 | 35018 ft | 466 kts | 333° |
| 2026-05-07 12:19 | 58.56163 | -3.35984 | 35018 ft | 466 kts | 333° |
| 2026-05-07 12:19 | 58.61906 | -3.41714 | 35018 ft | 466 kts | 333° |
| 2026-05-07 12:20 | 58.67646 | -3.47461 | 35018 ft | 466 kts | 333° |
| 2026-05-07 12:20 | 58.73384 | -3.53228 | 35018 ft | 466 kts | 333° |
| 2026-05-07 12:21 | 58.79118 | -3.59013 | 35018 ft | 466 kts | 333° |
| 2026-05-07 12:21 | 58.84846 | -3.64814 | 35018 ft | 466 kts | 333° |
| 2026-05-07 12:22 | 58.90542 | -3.70628 | 35018 ft | 466 kts | 332° |
| 2026-05-07 12:22 | 58.96263 | -3.76487 | 35019 ft | 466 kts | 332° |
| 2026-05-07 12:23 | 59.01979 | -3.82352 | 35019 ft | 466 kts | 332° |
| 2026-05-07 12:23 | 59.07695 | -3.88230 | 35019 ft | 466 kts | 332° |
| 2026-05-07 12:24 | 59.13393 | -3.94100 | 35018 ft | 466 kts | 332° |
| 2026-05-07 12:24 | 59.19115 | -3.99997 | 35018 ft | 466 kts | 332° |
| 2026-05-07 12:25 | 59.24832 | -4.05929 | 35018 ft | 466 kts | 332° |
| 2026-05-07 12:25 | 59.30539 | -4.11881 | 35018 ft | 466 kts | 332° |
| 2026-05-07 12:26 | 59.36240 | -4.17854 | 35018 ft | 466 kts | 332° |
| 2026-05-07 12:26 | 59.41931 | -4.23841 | 35018 ft | 466 kts | 332° |
| 2026-05-07 12:27 | 59.47645 | -4.29873 | 35018 ft | 466 kts | 332° |
| 2026-05-07 12:27 | 59.53338 | -4.35908 | 35018 ft | 466 kts | 332° |
| 2026-05-07 12:28 | 59.59056 | -4.41993 | 35018 ft | 466 kts | 332° |
| 2026-05-07 12:28 | 59.64751 | -4.48077 | 35018 ft | 466 kts | 332° |
| 2026-05-07 12:29 | 59.70444 | -4.54182 | 35018 ft | 466 kts | 332° |
| 2026-05-07 12:29 | 59.76105 | -4.60277 | 35018 ft | 466 kts | 332° |
| 2026-05-07 12:30 | 59.81788 | -4.66422 | 35018 ft | 466 kts | 331° |
| 2026-05-07 12:30 | 59.87461 | -4.72608 | 35019 ft | 466 kts | 331° |
| 2026-05-07 12:31 | 59.93133 | -4.78805 | 35019 ft | 466 kts | 331° |
| 2026-05-07 12:31 | 59.98801 | -4.85010 | 35019 ft | 466 kts | 331° |
| 2026-05-07 12:32 | 60.04469 | -4.91235 | 35019 ft | 466 kts | 331° |
| 2026-05-07 12:32 | 60.10132 | -4.97477 | 35018 ft | 466 kts | 331° |
| 2026-05-07 12:33 | 60.18645 | -5.06866 | 35018 ft | 466 kts | 331° |
| 2026-05-07 12:33 | 60.24307 | -5.13155 | 35018 ft | 466 kts | 331° |
| 2026-05-07 12:34 | 60.29962 | -5.19472 | 35019 ft | 466 kts | 331° |
| 2026-05-07 12:34 | 60.35614 | -5.25813 | 35019 ft | 466 kts | 331° |
| 2026-05-07 12:35 | 60.41171 | -5.32074 | 34662 ft | 454 kts | 331° |
| 2026-05-07 12:35 | 60.43931 | -5.35193 | 33961 ft | 453 kts | 331° |
| 2026-05-07 12:35 | 60.46655 | -5.38279 | 33272 ft | 456 kts | 331° |
| 2026-05-07 12:36 | 60.49417 | -5.41412 | 32568 ft | 451 kts | 331° |
| 2026-05-07 12:36 | 60.52099 | -5.44460 | 31893 ft | 444 kts | 331° |
| 2026-05-07 12:36 | 60.54798 | -5.47535 | 31194 ft | 441 kts | 331° |
| 2026-05-07 12:36 | 60.57430 | -5.50539 | 30501 ft | 438 kts | 331° |
| 2026-05-07 12:37 | 60.60082 | -5.53571 | 29820 ft | 434 kts | 331° |
| 2026-05-07 12:37 | 60.62668 | -5.56534 | 29375 ft | 430 kts | 331° |
| 2026-05-07 12:37 | 60.65272 | -5.59523 | 28910 ft | 427 kts | 331° |
| 2026-05-07 12:37 | 60.67817 | -5.62450 | 28449 ft | 423 kts | 331° |
| 2026-05-07 12:38 | 60.70377 | -5.65399 | 27981 ft | 420 kts | 330° |
| 2026-05-07 12:38 | 60.72878 | -5.68297 | 27520 ft | 416 kts | 330° |
| 2026-05-07 12:38 | 60.75391 | -5.71216 | 27054 ft | 413 kts | 330° |
| 2026-05-07 12:38 | 60.77848 | -5.74070 | 26597 ft | 409 kts | 330° |
| 2026-05-07 12:39 | 60.80319 | -5.76943 | 26134 ft | 406 kts | 330° |
| 2026-05-07 12:39 | 60.82736 | -5.79755 | 25680 ft | 402 kts | 330° |
| 2026-05-07 12:39 | 60.85168 | -5.82586 | 25221 ft | 399 kts | 330° |
| 2026-05-07 12:39 | 60.87545 | -5.85359 | 24772 ft | 396 kts | 330° |
| 2026-05-07 12:40 | 60.89936 | -5.88153 | 24317 ft | 393 kts | 330° |
| 2026-05-07 12:40 | 60.92273 | -5.90890 | 23871 ft | 390 kts | 330° |
| 2026-05-07 12:40 | 60.94625 | -5.93649 | 23419 ft | 386 kts | 330° |
| 2026-05-07 12:40 | 60.96924 | -5.96352 | 22976 ft | 383 kts | 330° |
| 2026-05-07 12:41 | 60.99187 | -5.99246 | 22530 ft | 380 kts | 326° |
| 2026-05-07 12:41 | 61.01306 | -6.02373 | 22089 ft | 377 kts | 322° |
| 2026-05-07 12:41 | 61.03344 | -6.05783 | 21643 ft | 374 kts | 320° |
| 2026-05-07 12:41 | 61.05301 | -6.09211 | 21206 ft | 372 kts | 319° |
| 2026-05-07 12:42 | 61.07265 | -6.12681 | 20763 ft | 369 kts | 319° |
| 2026-05-07 12:42 | 61.09187 | -6.16083 | 20330 ft | 367 kts | 320° |
| 2026-05-07 12:42 | 61.11126 | -6.19507 | 19891 ft | 364 kts | 320° |
| 2026-05-07 12:42 | 61.13030 | -6.22852 | 19461 ft | 362 kts | 320° |
| 2026-05-07 12:43 | 61.14949 | -6.26229 | 19026 ft | 360 kts | 320° |
| 2026-05-07 12:43 | 61.16827 | -6.29544 | 18597 ft | 358 kts | 320° |
| 2026-05-07 12:43 | 61.18719 | -6.32895 | 18164 ft | 355 kts | 320° |
| 2026-05-07 12:43 | 61.20572 | -6.36184 | 17737 ft | 354 kts | 320° |
| 2026-05-07 12:44 | 61.22441 | -6.39509 | 17307 ft | 352 kts | 320° |
| 2026-05-07 12:44 | 61.24272 | -6.42772 | 16883 ft | 350 kts | 320° |
| 2026-05-07 12:44 | 61.26120 | -6.46073 | 16454 ft | 348 kts | 320° |
| 2026-05-07 12:44 | 61.27931 | -6.49312 | 16032 ft | 346 kts | 320° |
| 2026-05-07 12:45 | 61.29758 | -6.52585 | 15606 ft | 345 kts | 320° |
| 2026-05-07 12:45 | 61.31550 | -6.55801 | 15186 ft | 343 kts | 320° |
| 2026-05-07 12:45 | 61.33359 | -6.59052 | 14761 ft | 341 kts | 320° |
| 2026-05-07 12:45 | 61.35133 | -6.62246 | 14344 ft | 340 kts | 320° |
| 2026-05-07 12:46 | 61.36922 | -6.65471 | 13921 ft | 338 kts | 319° |
| 2026-05-07 12:46 | 61.38672 | -6.68644 | 13506 ft | 336 kts | 319° |
| 2026-05-07 12:46 | 61.40437 | -6.71849 | 13086 ft | 334 kts | 319° |
| 2026-05-07 12:46 | 61.42165 | -6.74988 | 12674 ft | 332 kts | 319° |
| 2026-05-07 12:47 | 61.43882 | -6.78107 | 12265 ft | 329 kts | 319° |
| 2026-05-07 12:47 | 61.45610 | -6.81250 | 11850 ft | 327 kts | 319° |
| 2026-05-07 12:47 | 61.47301 | -6.84329 | 11445 ft | 324 kts | 319° |
| 2026-05-07 12:47 | 61.49003 | -6.87431 | 11036 ft | 322 kts | 319° |
| 2026-05-07 12:48 | 61.50668 | -6.90470 | 10636 ft | 320 kts | 319° |
| 2026-05-07 12:48 | 61.52343 | -6.93532 | 10249 ft | 316 kts | 319° |
| 2026-05-07 12:48 | 61.53949 | -6.96472 | 10151 ft | 302 kts | 319° |
| 2026-05-07 12:48 | 61.55500 | -6.99318 | 10073 ft | 288 kts | 319° |
| 2026-05-07 12:49 | 61.56963 | -7.02004 | 9953 ft | 279 kts | 319° |
| 2026-05-07 12:49 | 61.58426 | -7.04692 | 9599 ft | 278 kts | 319° |
| 2026-05-07 12:49 | 61.60013 | -7.06871 | 9224 ft | 276 kts | 341° |
| 2026-05-07 12:49 | 61.61902 | -7.07312 | 8879 ft | 274 kts | 8° |
| 2026-05-07 12:50 | 61.63726 | -7.06431 | 8572 ft | 271 kts | 15° |
| 2026-05-07 12:50 | 61.65544 | -7.05382 | 8254 ft | 269 kts | 15° |
| 2026-05-07 12:50 | 61.67323 | -7.04353 | 7943 ft | 267 kts | 15° |
| 2026-05-07 12:50 | 61.69115 | -7.03333 | 7630 ft | 265 kts | 15° |
| 2026-05-07 12:51 | 61.70873 | -7.02347 | 7324 ft | 263 kts | 15° |
| 2026-05-07 12:51 | 61.72664 | -7.01352 | 7012 ft | 261 kts | 15° |
| 2026-05-07 12:51 | 61.74406 | -7.00389 | 6709 ft | 260 kts | 14° |
| 2026-05-07 12:51 | 61.76157 | -6.99423 | 6404 ft | 258 kts | 14° |
| 2026-05-07 12:52 | 61.77871 | -6.98478 | 6106 ft | 257 kts | 14° |
| 2026-05-07 12:52 | 61.79601 | -6.97525 | 5804 ft | 255 kts | 14° |
| 2026-05-07 12:52 | 61.81296 | -6.96589 | 5509 ft | 254 kts | 14° |
| 2026-05-07 12:52 | 61.83006 | -6.95646 | 5211 ft | 252 kts | 14° |
| 2026-05-07 12:53 | 61.84665 | -6.94729 | 5083 ft | 242 kts | 14° |
| 2026-05-07 12:53 | 61.86263 | -6.93847 | 5041 ft | 231 kts | 14° |
| 2026-05-07 12:53 | 61.87800 | -6.92997 | 4996 ft | 230 kts | 14° |
| 2026-05-07 12:53 | 61.89359 | -6.92134 | 4940 ft | 230 kts | 14° |
| 2026-05-07 12:54 | 61.90895 | -6.91281 | 4800 ft | 230 kts | 14° |
| 2026-05-07 12:54 | 61.92446 | -6.90418 | 4649 ft | 229 kts | 14° |
| 2026-05-07 12:54 | 61.93973 | -6.89568 | 4478 ft | 229 kts | 14° |
| 2026-05-07 12:54 | 61.95535 | -6.88701 | 4124 ft | 232 kts | 13° |
| 2026-05-07 12:55 | 61.97089 | -6.88647 | 4027 ft | 223 kts | 342° |
| 2026-05-07 12:55 | 61.98337 | -6.90363 | 4069 ft | 205 kts | 309° |
| 2026-05-07 12:55 | 61.98871 | -6.92936 | 3991 ft | 186 kts | 283° |
| 2026-05-07 12:55 | 61.99094 | -6.95631 | 3812 ft | 182 kts | 278° |
| 2026-05-07 12:56 | 61.99309 | -6.98162 | 3556 ft | 168 kts | 284° |
| 2026-05-07 12:56 | 61.99655 | -7.00446 | 3279 ft | 154 kts | 291° |
| 2026-05-07 12:56 | 62.00073 | -7.02429 | 3030 ft | 144 kts | 297° |
| 2026-05-07 12:56 | 62.00544 | -7.04324 | 2811 ft | 143 kts | 298° |
| 2026-05-07 12:57 | 62.01015 | -7.06173 | 2595 ft | 143 kts | 298° |
| 2026-05-07 12:57 | 62.01467 | -7.07966 | 2386 ft | 142 kts | 298° |
| 2026-05-07 12:57 | 62.01932 | -7.09838 | 2167 ft | 142 kts | 297° |
| 2026-05-07 12:57 | 62.02387 | -7.11679 | 1952 ft | 141 kts | 297° |
| 2026-05-07 12:58 | 62.02842 | -7.13520 | 1737 ft | 141 kts | 297° |
| 2026-05-07 12:58 | 62.03024 | -7.14257 | 1650 ft | 141 kts | 297° |
| 2026-05-07 12:58 | 62.03276 | -7.15278 | 1530 ft | 141 kts | 298° |
| 2026-05-07 12:58 | 62.03735 | -7.17128 | 1313 ft | 140 kts | 298° |
| 2026-05-07 12:59 | 62.04185 | -7.18946 | 1099 ft | 140 kts | 298° |
| 2026-05-07 12:59 | 62.04641 | -7.20785 | 882 ft | 139 kts | 298° |
| 2026-05-07 12:59 | 62.05089 | -7.22593 | 669 ft | 139 kts | 298° |
| 2026-05-07 12:59 | 62.05543 | -7.24420 | 453 ft | 138 kts | 298° |
| 2026-05-07 13:00 | 62.05988 | -7.26216 | 244 ft | 137 kts | 298° |
| 2026-05-07 13:00 | 62.06435 | -7.28011 | 302 ft | 136 kts | 297° |
| 2026-05-07 13:00 | 62.06861 | -7.29808 | 527 ft | 130 kts | 295° |
| 2026-05-07 13:00 | 62.07242 | -7.31609 | 1177 ft | 139 kts | 291° |
| 2026-05-07 13:01 | 62.07511 | -7.33537 | 1895 ft | 143 kts | 284° |
| 2026-05-07 13:01 | 62.07744 | -7.35694 | 2478 ft | 155 kts | 283° |
| 2026-05-07 13:01 | 62.08001 | -7.37999 | 2879 ft | 169 kts | 284° |
| 2026-05-07 13:01 | 62.08306 | -7.40571 | 3301 ft | 186 kts | 284° |
| 2026-05-07 13:02 | 62.08643 | -7.43312 | 3611 ft | 205 kts | 285° |
| 2026-05-07 13:02 | 62.09035 | -7.46433 | 3930 ft | 228 kts | 285° |
| 2026-05-07 13:02 | 62.09468 | -7.49746 | 3924 ft | 236 kts | 290° |
| 2026-05-07 13:02 | 62.10340 | -7.52715 | 3974 ft | 237 kts | 314° |
| 2026-05-07 13:03 | 62.11534 | -7.55002 | 3990 ft | 228 kts | 322° |
| 2026-05-07 13:03 | 62.12632 | -7.57420 | 3988 ft | 226 kts | 298° |
| 2026-05-07 13:03 | 62.13007 | -7.60616 | 4001 ft | 226 kts | 266° |
| 2026-05-07 13:03 | 62.12519 | -7.63786 | 4005 ft | 225 kts | 234° |
| 2026-05-07 13:04 | 62.11367 | -7.65779 | 3998 ft | 212 kts | 199° |
| 2026-05-07 13:04 | 62.09917 | -7.66019 | 4003 ft | 211 kts | 164° |
| 2026-05-07 13:04 | 62.08686 | -7.64463 | 4003 ft | 210 kts | 129° |
| 2026-05-07 13:04 | 62.07975 | -7.61724 | 4011 ft | 211 kts | 110° |
| 2026-05-07 13:05 | 62.07556 | -7.58853 | 4074 ft | 194 kts | 99° |
| 2026-05-07 13:05 | 62.07465 | -7.56174 | 4008 ft | 172 kts | 91° |
| 2026-05-07 13:05 | 62.07457 | -7.53719 | 3718 ft | 163 kts | 89° |
| 2026-05-07 13:05 | 62.07460 | -7.51317 | 3333 ft | 160 kts | 89° |
| 2026-05-07 13:06 | 62.07465 | -7.48987 | 2859 ft | 159 kts | 89° |
| 2026-05-07 13:06 | 62.07470 | -7.46622 | 2398 ft | 159 kts | 89° |
| 2026-05-07 13:06 | 62.07532 | -7.44332 | 2010 ft | 153 kts | 81° |
| 2026-05-07 13:06 | 62.07715 | -7.42158 | 1701 ft | 143 kts | 80° |
| 2026-05-07 13:07 | 62.07821 | -7.40109 | 1360 ft | 138 kts | 84° |
| 2026-05-07 13:07 | 62.07854 | -7.38128 | 1081 ft | 128 kts | 90° |
| 2026-05-07 13:07 | 62.07788 | -7.36152 | 932 ft | 138 kts | 97° |
| 2026-05-07 13:07 | 62.07617 | -7.34099 | 784 ft | 140 kts | 103° |
| 2026-05-07 13:08 | 62.07359 | -7.32117 | 518 ft | 139 kts | 108° |
| 2026-05-07 13:08 | 62.06984 | -7.30241 | 316 ft | 138 kts | 118° |
| 2026-05-07 13:08 | 62.06546 | -7.28460 | 275 ft | 114 kts | 118° |
| 2026-05-07 13:08 | 62.06347 | -7.27658 | 300 ft | 48 kts | 118° |
| 2026-05-07 13:09 | 62.06190 | -7.27027 | 282 ft | 48 kts | 117° |
| 2026-05-07 13:09 | 62.06083 | -7.26594 | 246 ft | 35 kts | 118° |
| 2026-05-07 13:09 | 62.05966 | -7.26128 | 192 ft | 18 kts | 118° |
| 2026-05-07 13:09 | 62.05925 | -7.25962 | 172 ft | 9 kts | 181° |
| 2026-05-07 13:10 | 62.05915 | -7.25992 | 175 ft | 4 kts | 312° |
| 2026-05-07 13:10 | 62.06075 | -7.26567 | 244 ft | 79 kts | 298° |
| 2026-05-07 13:10 | 62.06346 | -7.27651 | 300 ft | 69 kts | 298° |
| 2026-05-07 13:10 | 62.06461 | -7.28110 | 298 ft | 10 kts | 303° |
| 2026-05-07 13:11 | 62.06536 | -7.28118 | 292 ft | 2 kts | 22° |
| 2026-05-07 13:11 | 62.06572 | -7.28092 | 290 ft | 8 kts | 17° |
| 2026-05-07 13:11 | 62.06650 | -7.28094 | 284 ft | 14 kts | 350° |
| 2026-05-07 13:11 | 62.06699 | -7.28067 | 281 ft | 0 kts | 34° |
| 2026-05-07 13:12 | 62.06703 | -7.28061 | 281 ft | 0 kts | 30° |
| 2026-05-07 13:12 | 62.06705 | -7.28059 | 281 ft | 1 kts | 28° |
| 2026-05-07 13:12 | 62.06710 | -7.28049 | 281 ft | 1 kts | 56° |
| 2026-05-07 13:13 | 62.06713 | -7.28030 | 282 ft | 0 kts | 73° |
| 2026-05-07 13:13 | 62.06713 | -7.28025 | 282 ft | 0 kts | 74° |